Time;durP1;ratioP1;P1;durP2;ratioP2;P2;SDS_P1;SDS_P2;PMS_P1;PMS_P2;Temp;Humidity;BMP_temperature;BMP_pressure;BME280_temperature;BME280_humidity;BME280_pressure;Samples;Min_cycle;Max_cycle;Signal;HPM_P1;HPM_P2
2022/01/17 00:02:21;;;;;;;20.27;10.35;;;1.80;99.90;;;;;;5021864;28;20497;-52
2022/01/17 00:04:48;;;;;;;25.17;11.05;;;1.80;99.90;;;;;;5025273;28;20049;-53
2022/01/17 00:07:14;;;;;;;16.63;9.23;;;1.80;99.90;;;;;;5024575;28;20034;-51
2022/01/17 00:09:40;;;;;;;16.45;9.07;;;1.80;99.90;;;;;;5023036;28;20052;-52
2022/01/17 00:12:06;;;;;;;17.02;9.43;;;1.90;99.90;;;;;;5028317;28;20489;-53
2022/01/17 00:14:38;;;;;;;17.38;9.25;;;1.90;99.90;;;;;;5021727;28;20538;-53
2022/01/17 00:19:43;;;;;;;19.52;9.90;;;1.90;99.90;;;;;;5023575;28;20038;-51
2022/01/17 00:22:11;;;;;;;17.95;8.93;;;1.90;99.90;;;;;;5021319;28;20496;-52
2022/01/17 00:24:37;;;;;;;17.05;10.35;;;1.80;99.90;;;;;;5021161;28;20494;-54
2022/01/17 00:27:02;;;;;;;17.15;9.35;;;1.90;99.90;;;;;;5023310;28;20032;-52
2022/01/17 00:29:29;;;;;;;19.27;10.20;;;1.80;99.90;;;;;;5023182;28;20030;-52
2022/01/17 00:31:55;;;;;;;18.63;10.05;;;1.90;99.90;;;;;;5020041;28;20521;-53
2022/01/17 00:34:21;;;;;;;15.85;9.18;;;1.90;99.90;;;;;;5023510;28;20040;-52
2022/01/17 00:36:47;;;;;;;19.10;9.98;;;1.90;99.90;;;;;;5021736;28;20042;-51
2022/01/17 00:39:12;;;;;;;18.67;9.38;;;1.90;99.90;;;;;;5022933;28;20121;-52
2022/01/17 00:41:38;;;;;;;22.63;9.15;;;1.90;99.90;;;;;;5019417;28;20050;-51
2022/01/17 00:44:04;;;;;;;24.42;10.60;;;1.90;99.90;;;;;;5023208;28;20105;-53
2022/01/17 00:46:31;;;;;;;18.23;9.88;;;1.90;99.90;;;;;;5025842;28;20457;-54
2022/01/17 00:48:57;;;;;;;16.02;9.35;;;1.90;99.90;;;;;;5020391;28;20026;-54
2022/01/17 00:51:23;;;;;;;19.83;10.30;;;1.90;99.90;;;;;;5022228;28;20037;-54
2022/01/17 00:53:49;;;;;;;18.60;9.43;;;1.90;99.90;;;;;;5023092;28;20028;-52
2022/01/17 00:56:15;;;;;;;15.27;8.63;;;1.90;99.90;;;;;;5030710;28;20030;-53
2022/01/17 00:58:42;;;;;;;18.30;9.80;;;1.80;99.90;;;;;;5033287;28;20030;-53
2022/01/17 01:01:07;;;;;;;21.58;9.73;;;1.90;99.90;;;;;;5019563;28;20046;-54
2022/01/17 01:03:33;;;;;;;18.83;10.18;;;1.80;99.90;;;;;;5023793;28;20043;-52
2022/01/17 01:05:59;;;;;;;18.27;10.48;;;1.90;99.90;;;;;;5021313;28;20041;-53
2022/01/17 01:08:24;;;;;;;21.10;9.75;;;1.90;99.90;;;;;;5021572;28;20029;-55
2022/01/17 01:10:50;;;;;;;16.50;9.70;;;1.90;99.90;;;;;;5024228;28;20025;-54
2022/01/17 01:13:22;;;;;;;15.70;9.32;;;1.90;99.90;;;;;;5022917;28;20052;-53
2022/01/17 01:16:09;;;;;;;16.75;9.07;;;1.90;99.90;;;;;;5020577;28;20033;-53
2022/01/17 01:21:44;;;;;;;20.95;10.43;;;1.90;99.90;;;;;;5020611;28;20026;-52
2022/01/17 01:29:47;;;;;;;17.23;8.05;;;1.80;99.90;;;;;;5020126;28;20044;-53
2022/01/17 01:32:14;;;;;;;16.35;9.10;;;1.90;99.90;;;;;;5018560;28;20339;-53
2022/01/17 01:34:45;;;;;;;18.67;9.40;;;1.80;99.90;;;;;;5020386;28;20040;-54
2022/01/17 01:37:12;;;;;;;16.52;9.38;;;1.80;99.90;;;;;;5023645;28;20191;-53
2022/01/17 01:39:38;;;;;;;19.42;9.85;;;1.80;99.90;;;;;;5023320;28;20033;-55
2022/01/17 01:42:05;;;;;;;16.75;8.68;;;1.90;99.90;;;;;;5022374;28;20036;-53
2022/01/17 01:44:31;;;;;;;16.63;9.70;;;1.90;99.90;;;;;;5023096;28;20021;-55
2022/01/17 01:46:58;;;;;;;20.20;10.20;;;1.90;99.90;;;;;;5022259;28;20014;-55
2022/01/17 01:49:24;;;;;;;18.33;8.88;;;1.90;99.90;;;;;;5054033;28;20035;-53
2022/01/17 01:51:51;;;;;;;19.02;9.82;;;1.80;99.90;;;;;;5021522;28;20026;-54
2022/01/17 01:54:18;;;;;;;21.13;9.10;;;1.90;99.90;;;;;;5021558;28;20040;-55
2022/01/17 01:56:46;;;;;;;14.93;7.88;;;1.90;99.90;;;;;;5023941;28;20037;-53
2022/01/17 01:59:12;;;;;;;;;;;1.90;99.90;;;;;;5021362;28;21707;-55
2022/01/17 02:01:38;;;;;;;19.40;8.43;;;1.90;99.90;;;;;;5046778;28;19928;-50
2022/01/17 02:04:04;;;;;;;15.75;10.55;;;1.90;99.90;;;;;;5014257;28;20034;-51
2022/01/17 02:06:34;;;;;;;22.52;10.23;;;1.90;99.90;;;;;;5014244;28;20033;-50
2022/01/17 02:09:02;;;;;;;17.63;8.32;;;1.90;99.90;;;;;;5013400;28;20057;-51
2022/01/17 02:11:28;;;;;;;15.38;8.63;;;1.90;99.90;;;;;;5014893;28;20033;-51
2022/01/17 02:13:53;;;;;;;20.35;9.48;;;1.90;99.90;;;;;;5014090;28;20037;-51
2022/01/17 02:16:22;;;;;;;17.45;9.15;;;1.90;99.90;;;;;;5015895;28;20030;-51
2022/01/17 02:18:49;;;;;;;;;;;1.90;99.90;;;;;;5011773;28;20027;-51
2022/01/17 02:23:41;;;;;;;16.92;8.23;;;1.90;99.90;;;;;;5013398;28;20100;-54
2022/01/17 02:26:07;;;;;;;17.20;9.57;;;1.90;99.90;;;;;;5015042;28;20502;-51
2022/01/17 02:28:33;;;;;;;16.65;8.60;;;1.90;99.90;;;;;;5015701;28;20855;-51
2022/01/17 02:31:05;;;;;;;17.20;9.27;;;1.90;99.90;;;;;;5017215;28;20066;-51
2022/01/17 02:33:32;;;;;;;16.35;8.50;;;1.90;99.90;;;;;;5014912;28;20163;-49
2022/01/17 02:35:57;;;;;;;16.48;8.10;;;1.90;99.90;;;;;;5013921;28;20025;-50
2022/01/17 02:38:23;;;;;;;18.67;10.02;;;1.90;99.90;;;;;;5016863;28;20236;-51
2022/01/17 02:40:50;;;;;;;16.15;7.68;;;1.90;99.90;;;;;;5016200;28;20080;-50
2022/01/17 02:43:17;;;;;;;15.50;7.75;;;1.90;99.90;;;;;;5017023;28;20097;-50
2022/01/17 02:48:24;;;;;;;12.32;7.88;;;1.90;99.90;;;;;;5015245;28;20033;-52
2022/01/17 02:50:51;;;;;;;18.05;9.02;;;1.90;99.90;;;;;;5021178;28;20074;-51
2022/01/17 02:53:17;;;;;;;16.98;8.52;;;1.90;99.90;;;;;;5014402;28;20034;-50
2022/01/17 02:56:04;;;;;;;18.92;8.60;;;1.90;99.90;;;;;;5014995;28;20045;-50
2022/01/17 02:58:34;;;;;;;15.18;8.45;;;1.90;99.90;;;;;;5016873;28;20034;-50
2022/01/17 03:01:08;;;;;;;15.02;7.82;;;1.90;99.90;;;;;;5013378;28;20037;-50
2022/01/17 03:03:34;;;;;;;15.98;9.05;;;1.90;99.90;;;;;;5018873;28;20088;-51
2022/01/17 03:06:00;;;;;;;12.73;8.10;;;1.90;99.90;;;;;;5016267;28;20048;-51
2022/01/17 03:08:29;;;;;;;12.00;7.47;;;1.80;99.90;;;;;;5014521;28;20029;-51
2022/01/17 03:10:55;;;;;;;15.60;7.72;;;1.90;99.90;;;;;;5014711;28;20111;-51
2022/01/17 03:13:30;;;;;;;16.38;8.63;;;1.80;99.90;;;;;;5010789;28;20025;-51
2022/01/17 03:15:59;;;;;;;16.05;6.60;;;1.80;99.90;;;;;;5040017;28;20049;-51
2022/01/17 03:18:32;;;;;;;;;;;1.80;99.90;;;;;;5020607;28;20029;-51
2022/01/17 03:20:58;;;;;;;13.15;6.40;;;1.80;99.90;;;;;;5012568;28;19925;-50
2022/01/17 03:23:26;;;;;;;10.85;6.30;;;1.90;99.90;;;;;;5013269;28;20076;-51
2022/01/17 03:25:52;;;;;;;11.83;5.90;;;1.90;99.90;;;;;;5010216;28;20750;-50
2022/01/17 03:28:18;;;;;;;8.85;6.32;;;1.90;99.90;;;;;;5017783;28;20612;-50
2022/01/17 03:30:44;;;;;;;11.50;7.20;;;1.90;99.90;;;;;;5012641;28;20041;-51
2022/01/17 03:33:12;;;;;;;13.95;8.27;;;1.90;99.90;;;;;;5015001;28;20383;-52
2022/01/17 03:35:39;;;;;;;12.10;7.82;;;1.90;99.90;;;;;;5015337;28;20029;-51
2022/01/17 03:38:07;;;;;;;8.85;5.55;;;1.90;99.90;;;;;;5013673;28;20025;-51
2022/01/17 03:40:33;;;;;;;11.25;7.03;;;1.90;99.90;;;;;;5015047;28;20759;-51
2022/01/17 03:42:59;;;;;;;10.70;6.35;;;1.90;99.90;;;;;;5012980;28;20026;-51
2022/01/17 03:45:24;;;;;;;14.45;7.00;;;1.90;99.90;;;;;;5014246;28;20044;-52
2022/01/17 03:47:51;;;;;;;18.05;8.02;;;1.90;99.90;;;;;;5016160;28;20037;-52
2022/01/17 03:50:20;;;;;;;11.27;6.70;;;1.90;99.90;;;;;;5015349;28;20489;-51
2022/01/17 03:52:47;;;;;;;11.52;6.03;;;1.90;99.90;;;;;;5017353;28;20029;-51
2022/01/17 03:55:16;;;;;;;10.75;6.85;;;1.90;99.90;;;;;;5016750;28;20497;-51
2022/01/17 03:57:43;;;;;;;11.07;6.70;;;1.90;99.90;;;;;;5018410;28;20036;-51
2022/01/17 04:00:15;;;;;;;13.30;6.97;;;1.90;99.90;;;;;;5018059;28;20033;-52
2022/01/17 04:02:42;;;;;;;11.90;7.53;;;1.90;99.90;;;;;;5016221;28;20507;-50
2022/01/17 04:05:08;;;;;;;10.00;4.75;;;1.90;99.90;;;;;;5018204;28;20498;-50
2022/01/17 04:07:34;;;;;;;11.65;6.57;;;2.00;99.90;;;;;;5017677;28;20033;-50
2022/01/17 04:09:59;;;;;;;17.70;6.85;;;2.00;99.90;;;;;;5012084;28;20090;-50
2022/01/17 04:12:25;;;;;;;13.98;7.25;;;2.00;99.90;;;;;;5015723;28;20029;-51
2022/01/17 04:14:55;;;;;;;12.45;6.57;;;2.00;99.90;;;;;;5014745;28;20417;-51
2022/01/17 04:17:26;;;;;;;9.75;6.05;;;1.90;99.90;;;;;;5012152;28;20079;-51
2022/01/17 04:19:59;;;;;;;9.45;6.07;;;2.00;99.90;;;;;;5019233;28;20029;-51
2022/01/17 04:22:25;;;;;;;10.13;5.47;;;2.00;99.90;;;;;;5021228;28;20092;-51
2022/01/17 04:24:50;;;;;;;9.80;6.03;;;2.00;99.90;;;;;;5014344;28;20660;-51
2022/01/17 04:27:16;;;;;;;12.20;5.70;;;2.10;99.90;;;;;;5017960;28;20021;-51
2022/01/17 04:29:42;;;;;;;10.48;5.55;;;2.00;99.90;;;;;;5013788;28;20029;-50
2022/01/17 04:32:07;;;;;;;8.68;5.88;;;2.00;99.90;;;;;;5015509;28;20083;-51
2022/01/17 04:34:34;;;;;;;6.57;5.40;;;2.00;99.90;;;;;;5015102;28;20049;-51
2022/01/17 04:37:00;;;;;;;10.95;6.07;;;2.10;99.90;;;;;;5016029;28;20855;-50
2022/01/17 04:39:26;;;;;;;9.18;5.13;;;2.10;99.90;;;;;;5016841;28;20382;-50
2022/01/17 04:41:51;;;;;;;10.02;5.22;;;2.10;99.90;;;;;;5017229;28;20728;-50
2022/01/17 04:47:01;;;;;;;8.73;5.65;;;2.00;99.90;;;;;;5017124;28;20100;-51
2022/01/17 04:49:27;;;;;;;9.85;5.43;;;2.10;99.90;;;;;;5019445;28;20537;-51
2022/01/17 04:51:54;;;;;;;8.63;6.32;;;2.10;99.90;;;;;;5017653;28;20029;-51
2022/01/17 04:56:53;;;;;;;6.60;5.20;;;2.10;99.90;;;;;;5017641;28;20478;-50
2022/01/17 04:59:19;;;;;;;7.18;5.50;;;2.10;99.90;;;;;;5016198;28;20031;-50
2022/01/17 05:01:44;;;;;;;11.57;6.38;;;2.00;99.90;;;;;;5013970;28;20545;-50
2022/01/17 05:04:10;;;;;;;14.00;7.55;;;2.10;99.90;;;;;;5012336;28;20033;-50
2022/01/17 05:06:35;;;;;;;8.27;6.20;;;2.10;99.90;;;;;;5013821;28;20072;-53
2022/01/17 05:09:03;;;;;;;12.25;7.03;;;2.10;99.90;;;;;;5014802;28;20041;-51
2022/01/17 05:11:30;;;;;;;11.80;5.77;;;2.00;99.90;;;;;;5017645;28;20024;-51
2022/01/17 05:13:56;;;;;;;10.05;6.55;;;2.10;99.90;;;;;;5013418;28;20763;-51
2022/01/17 05:16:30;;;;;;;12.80;5.97;;;2.10;99.90;;;;;;5013300;28;20164;-51
2022/01/17 05:21:40;;;;;;;9.30;4.93;;;2.00;99.90;;;;;;5017370;28;20095;-50
2022/01/17 05:24:05;;;;;;;11.27;6.47;;;2.10;99.90;;;;;;5016982;28;20034;-50
2022/01/17 05:26:31;;;;;;;8.70;5.32;;;2.10;99.90;;;;;;5018397;28;20552;-52
2022/01/17 05:28:57;;;;;;;9.40;6.03;;;2.10;99.90;;;;;;5022944;28;20494;-50
2022/01/17 05:31:22;;;;;;;13.48;6.35;;;2.10;99.90;;;;;;5015729;28;20041;-50
2022/01/17 05:33:48;;;;;;;11.98;6.80;;;2.10;99.90;;;;;;5022821;28;20379;-51
2022/01/17 05:36:14;;;;;;;10.75;6.60;;;2.10;99.90;;;;;;5021653;28;20252;-50
2022/01/17 05:38:39;;;;;;;8.68;5.47;;;2.10;99.90;;;;;;5021768;28;20030;-51
2022/01/17 05:41:05;;;;;;;11.32;7.05;;;2.10;99.90;;;;;;5016892;28;20072;-51
2022/01/17 05:43:30;;;;;;;5.10;4.45;;;2.10;99.90;;;;;;5020576;28;20045;-51
2022/01/17 05:45:56;;;;;;;11.75;6.07;;;2.10;99.90;;;;;;5017812;28;20078;-51
2022/01/17 05:48:22;;;;;;;12.55;6.22;;;2.10;99.90;;;;;;5022182;28;20045;-52
2022/01/17 05:50:47;;;;;;;11.93;5.63;;;2.10;99.90;;;;;;5014959;28;20032;-50
2022/01/17 05:53:14;;;;;;;9.43;5.93;;;2.10;99.90;;;;;;5024866;28;20029;-51
2022/01/17 05:55:40;;;;;;;13.18;6.45;;;2.20;99.90;;;;;;5015202;28;20273;-51
2022/01/17 05:58:06;;;;;;;9.45;6.05;;;2.10;99.90;;;;;;5021006;28;20029;-50
2022/01/17 06:00:32;;;;;;;9.18;5.70;;;2.10;99.90;;;;;;5019540;28;20053;-51
2022/01/17 06:02:58;;;;;;;9.68;5.85;;;2.10;99.90;;;;;;5022987;28;20033;-51
2022/01/17 06:05:23;;;;;;;9.32;6.15;;;2.20;99.90;;;;;;5016187;28;20104;-51
2022/01/17 06:07:49;;;;;;;15.20;6.60;;;2.20;99.90;;;;;;5017410;28;20113;-50
2022/01/17 06:10:15;;;;;;;9.63;5.75;;;2.20;99.90;;;;;;5018136;28;20417;-50
2022/01/17 06:12:40;;;;;;;10.23;6.28;;;2.20;99.90;;;;;;5021646;28;20512;-51
2022/01/17 06:15:07;;;;;;;11.02;6.22;;;2.20;99.90;;;;;;5017977;28;20026;-52
2022/01/17 06:17:33;;;;;;;11.43;7.07;;;2.10;99.90;;;;;;5020890;28;20500;-51
2022/01/17 06:19:58;;;;;;;12.18;6.75;;;2.20;99.90;;;;;;5023768;28;20057;-51
2022/01/17 06:22:24;;;;;;;10.93;5.95;;;2.20;99.90;;;;;;5020411;28;20053;-51
2022/01/17 06:24:50;;;;;;;10.63;6.15;;;2.20;99.90;;;;;;5021290;28;20025;-51
2022/01/17 06:27:16;;;;;;;10.80;6.20;;;2.20;99.90;;;;;;5018824;28;20209;-50
2022/01/17 06:29:42;;;;;;;14.10;6.75;;;2.20;99.90;;;;;;5007949;28;20054;-51
2022/01/17 06:32:08;;;;;;;12.50;6.32;;;2.20;99.90;;;;;;5010159;28;20287;-50
2022/01/17 06:34:34;;;;;;;14.80;7.03;;;2.20;99.90;;;;;;5006300;28;20025;-50
2022/01/17 06:36:59;;;;;;;9.82;6.88;;;2.20;99.90;;;;;;5013141;28;20048;-51
2022/01/17 06:39:25;;;;;;;11.88;6.80;;;2.20;99.90;;;;;;5013312;28;20061;-50
2022/01/17 06:41:51;;;;;;;12.63;7.00;;;2.20;99.90;;;;;;5015689;28;20254;-51
2022/01/17 06:44:17;;;;;;;8.27;5.70;;;2.20;99.90;;;;;;5022198;28;20087;-51
2022/01/17 06:46:43;;;;;;;13.10;7.65;;;2.20;99.90;;;;;;5017056;28;20040;-51
2022/01/17 06:49:09;;;;;;;11.55;6.85;;;2.20;99.90;;;;;;5021489;28;20030;-52
2022/01/17 06:51:35;;;;;;;12.68;6.70;;;2.20;99.90;;;;;;5020318;28;20032;-51
2022/01/17 06:54:01;;;;;;;10.75;6.95;;;2.20;99.90;;;;;;5018135;28;20164;-52
2022/01/17 06:56:27;;;;;;;16.00;7.25;;;2.20;99.90;;;;;;5022699;28;20445;-50
2022/01/17 06:58:53;;;;;;;11.43;6.38;;;2.20;99.90;;;;;;5021481;28;20360;-51
2022/01/17 07:01:20;;;;;;;9.20;5.40;;;2.30;99.90;;;;;;5008049;28;20140;-51
2022/01/17 07:03:46;;;;;;;12.48;6.13;;;2.20;99.90;;;;;;5018547;28;20056;-53
2022/01/17 07:06:12;;;;;;;14.02;7.20;;;2.20;99.90;;;;;;5017233;28;20044;-50
2022/01/17 07:08:38;;;;;;;8.73;5.53;;;2.20;99.90;;;;;;5019253;28;20034;-50
2022/01/17 07:11:05;;;;;;;14.55;6.60;;;2.20;99.90;;;;;;5020384;28;20108;-50
2022/01/17 07:13:30;;;;;;;15.25;7.97;;;2.20;99.90;;;;;;5021539;28;20033;-50
2022/01/17 07:15:56;;;;;;;12.80;6.20;;;2.30;99.90;;;;;;5017281;28;20073;-50
2022/01/17 07:18:22;;;;;;;10.35;6.28;;;2.20;99.90;;;;;;5010774;28;20038;-51
2022/01/17 07:20:48;;;;;;;11.65;7.18;;;2.30;99.90;;;;;;5015505;28;20909;-51
2022/01/17 07:23:14;;;;;;;9.48;6.45;;;2.30;99.90;;;;;;5014412;28;20026;-51
2022/01/17 07:25:40;;;;;;;15.48;8.10;;;2.30;99.90;;;;;;5023393;28;20398;-50
2022/01/17 07:28:08;;;;;;;15.48;7.03;;;2.30;99.90;;;;;;5023954;28;20074;-51
2022/01/17 07:30:34;;;;;;;7.95;5.15;;;2.30;99.90;;;;;;5020463;28;20034;-51
2022/01/17 07:33:00;;;;;;;9.25;5.93;;;2.30;99.90;;;;;;5017642;28;20033;-51
2022/01/17 07:35:26;;;;;;;11.32;6.18;;;2.30;99.90;;;;;;5022340;28;20025;-51
2022/01/17 07:37:51;;;;;;;10.98;7.15;;;2.30;99.90;;;;;;5022404;28;20042;-51
2022/01/17 07:40:17;;;;;;;12.73;6.60;;;2.30;99.90;;;;;;5016673;28;20062;-51
2022/01/17 07:42:42;;;;;;;9.82;5.80;;;2.40;99.90;;;;;;5020917;28;20473;-52
2022/01/17 07:45:12;;;;;;;13.18;6.32;;;2.40;99.90;;;;;;5017274;28;20017;-51
2022/01/17 07:47:57;;;;;;;9.35;5.45;;;2.40;99.90;;;;;;5023283;28;20057;-51
2022/01/17 07:50:24;;;;;;;9.20;5.18;;;2.40;99.90;;;;;;5024321;28;20033;-51
2022/01/17 07:52:52;;;;;;;11.90;7.28;;;2.40;99.90;;;;;;5028045;28;20029;-51
2022/01/17 07:55:19;;;;;;;14.43;7.40;;;2.40;99.90;;;;;;5020792;28;20037;-53
2022/01/17 07:57:45;;;;;;;12.80;6.43;;;2.40;99.90;;;;;;5016447;28;20030;-51
2022/01/17 08:00:15;;;;;;;14.73;7.60;;;2.40;99.90;;;;;;5018780;28;20037;-51
2022/01/17 08:02:41;;;;;;;11.23;6.63;;;2.40;99.90;;;;;;5014397;28;20052;-52
2022/01/17 08:05:10;;;;;;;12.02;5.97;;;2.40;99.90;;;;;;5020447;28;20026;-54
2022/01/17 08:07:35;;;;;;;12.73;7.10;;;2.40;99.90;;;;;;5023403;28;20057;-52
2022/01/17 08:10:01;;;;;;;13.10;6.78;;;2.40;99.90;;;;;;5018148;28;20017;-52
2022/01/17 08:12:27;;;;;;;9.45;6.22;;;2.40;99.90;;;;;;5021963;28;20041;-52
2022/01/17 08:14:57;;;;;;;14.35;6.70;;;2.40;99.90;;;;;;5026034;28;20033;-51
2022/01/17 08:17:23;;;;;;;12.68;7.40;;;2.50;99.90;;;;;;5022740;28;20116;-52
2022/01/17 08:19:48;;;;;;;14.88;6.47;;;2.50;99.90;;;;;;5021017;28;20133;-51
2022/01/17 08:22:14;;;;;;;10.73;5.47;;;2.50;99.90;;;;;;5020173;28;20034;-51
2022/01/17 08:24:40;;;;;;;11.40;6.47;;;2.50;99.90;;;;;;5022857;28;20498;-51
2022/01/17 08:27:05;;;;;;;8.65;6.15;;;2.50;99.90;;;;;;5022329;28;20889;-50
2022/01/17 08:29:31;;;;;;;8.27;6.05;;;2.50;99.90;;;;;;5020554;28;20521;-51
2022/01/17 08:31:59;;;;;;;9.55;5.50;;;2.50;99.90;;;;;;5023257;28;20033;-51
2022/01/17 08:34:25;;;;;;;8.38;6.03;;;2.60;99.90;;;;;;5023602;28;20048;-51
2022/01/17 08:36:51;;;;;;;9.25;5.95;;;2.60;99.90;;;;;;5021160;28;20049;-51
2022/01/17 08:39:16;;;;;;;11.65;6.07;;;2.60;99.90;;;;;;5021623;28;20026;-51
2022/01/17 08:41:42;;;;;;;4.15;3.35;;;2.60;99.90;;;;;;5020917;28;20060;-50
2022/01/17 08:44:10;;;;;;;11.02;5.75;;;2.70;99.90;;;;;;5020727;28;20229;-50
2022/01/17 08:46:36;;;;;;;13.30;7.27;;;2.60;99.90;;;;;;5019000;28;20030;-51
2022/01/17 08:49:02;;;;;;;8.30;5.47;;;2.70;99.90;;;;;;5023518;28;21096;-51
2022/01/17 08:51:27;;;;;;;12.43;6.25;;;2.70;99.90;;;;;;5022363;28;20033;-51
2022/01/17 08:53:53;;;;;;;12.35;6.53;;;2.70;99.90;;;;;;5019513;28;20108;-51
2022/01/17 08:56:19;;;;;;;10.63;6.03;;;2.70;99.90;;;;;;5020042;28;20059;-51
2022/01/17 08:58:44;;;;;;;9.18;5.85;;;2.70;99.90;;;;;;5020660;28;20734;-51
2022/01/17 09:01:13;;;;;;;10.63;6.43;;;2.70;99.90;;;;;;5022572;28;20064;-51
2022/01/17 09:03:40;;;;;;;11.98;6.53;;;2.80;99.90;;;;;;5022248;28;20021;-51
2022/01/17 09:06:05;;;;;;;12.10;7.03;;;2.80;99.90;;;;;;5023292;28;20053;-50
2022/01/17 09:08:31;;;;;;;11.10;5.85;;;2.80;99.90;;;;;;5025934;28;20053;-51
2022/01/17 09:10:57;;;;;;;10.63;6.38;;;2.90;99.90;;;;;;5019806;28;20125;-51
2022/01/17 09:13:24;;;;;;;10.45;5.72;;;2.90;99.90;;;;;;5022038;28;20085;-53
2022/01/17 09:15:50;;;;;;;9.50;6.70;;;3.00;99.90;;;;;;5022351;28;20062;-51
2022/01/17 09:18:17;;;;;;;7.53;5.45;;;3.00;99.90;;;;;;5020689;28;20021;-51
2022/01/17 09:20:43;;;;;;;10.98;5.53;;;3.00;99.90;;;;;;5019752;28;20041;-51
2022/01/17 09:23:09;;;;;;;9.95;5.65;;;3.00;99.90;;;;;;5024425;28;20359;-51
2022/01/17 09:25:35;;;;;;;9.80;5.88;;;3.10;99.90;;;;;;5019885;28;20026;-51
2022/01/17 09:28:00;;;;;;;8.45;5.70;;;3.10;99.90;;;;;;5015587;28;20040;-51
2022/01/17 09:30:26;;;;;;;10.40;5.70;;;3.20;99.90;;;;;;4999415;28;20041;-51
2022/01/17 09:32:52;;;;;;;10.77;6.63;;;3.20;99.90;;;;;;4999244;28;20034;-50
2022/01/17 09:35:18;;;;;;;13.52;6.40;;;3.20;99.90;;;;;;4999122;28;20397;-51
2022/01/17 09:37:43;;;;;;;10.15;5.30;;;3.30;99.90;;;;;;5002244;28;20034;-51
2022/01/17 09:40:10;;;;;;;8.85;5.85;;;3.30;99.90;;;;;;5009845;28;20125;-51
2022/01/17 09:42:37;;;;;;;9.43;5.45;;;3.40;99.90;;;;;;5002517;28;20115;-51
2022/01/17 09:45:12;;;;;;;8.85;5.05;;;3.40;99.90;;;;;;5002105;28;20715;-51
2022/01/17 09:47:39;;;;;;;7.70;4.65;;;3.40;99.90;;;;;;5001881;28;20111;-50
2022/01/17 09:50:12;;;;;;;10.48;5.55;;;3.40;99.90;;;;;;5009723;28;20038;-51
2022/01/17 09:52:44;;;;;;;6.25;4.13;;;3.50;99.90;;;;;;5000505;28;20497;-50
2022/01/17 09:55:21;;;;;;;8.45;4.38;;;3.50;99.90;;;;;;5006483;28;20038;-50
2022/01/17 09:57:52;;;;;;;8.15;4.93;;;3.50;99.90;;;;;;5006137;28;20528;-51
2022/01/17 10:00:24;;;;;;;8.32;4.78;;;3.60;99.90;;;;;;5001849;28;20116;-50
2022/01/17 10:02:50;;;;;;;6.93;4.55;;;3.60;99.90;;;;;;5003462;28;21588;-50
2022/01/17 10:05:16;;;;;;;11.15;4.85;;;3.70;99.90;;;;;;5000649;28;20064;-51
2022/01/17 10:08:01;;;;;;;6.65;4.47;;;3.80;99.90;;;;;;5003530;28;20029;-51
2022/01/17 10:10:44;;;;;;;8.13;4.22;;;3.90;99.90;;;;;;4999536;28;20076;-51
2022/01/17 10:13:23;;;;;;;7.93;5.03;;;3.90;99.90;;;;;;5001664;28;20045;-51
2022/01/17 10:16:01;;;;;;;6.70;4.90;;;3.90;99.90;;;;;;5010469;28;20038;-52
2022/01/17 10:18:27;;;;;;;7.22;4.28;;;3.90;99.90;;;;;;5006939;28;20071;-50
2022/01/17 10:20:58;;;;;;;6.97;4.05;;;3.90;99.90;;;;;;5000832;28;20046;-50
2022/01/17 10:24:11;;;;;;;7.10;3.53;;;4.00;99.90;;;;;;5000100;28;20037;-51
2022/01/17 10:26:30;;;;;;;8.52;3.97;;;4.10;99.90;;;;;;4999001;28;20172;-50
2022/01/17 10:29:27;;;;;;;5.40;3.55;;;4.10;99.90;;;;;;5001713;28;20044;-52
2022/01/17 10:37:13;;;;;;;9.48;4.07;;;4.30;99.90;;;;;;5012732;28;20041;-51
2022/01/17 10:40:15;;;;;;;6.25;4.10;;;4.30;99.90;;;;;;5008267;28;20080;-51
2022/01/17 10:42:47;;;;;;;4.43;3.65;;;4.40;99.90;;;;;;4979297;28;20046;-53
2022/01/17 10:45:21;;;;;;;5.40;3.05;;;4.50;99.90;;;;;;5002273;28;20033;-51
2022/01/17 10:47:48;;;;;;;5.68;3.72;;;4.60;99.90;;;;;;5008818;28;20098;-51
2022/01/17 10:50:15;;;;;;;8.00;4.10;;;4.60;99.90;;;;;;5001754;28;20098;-51
2022/01/17 10:52:47;;;;;;;3.10;2.55;;;4.70;99.90;;;;;;4999524;28;20025;-51
2022/01/17 10:55:20;;;;;;;5.60;3.78;;;4.70;99.90;;;;;;5015986;28;20032;-50
2022/01/17 10:57:49;;;;;;;6.65;3.67;;;4.70;99.90;;;;;;5004103;28;20029;-50
2022/01/17 11:00:17;;;;;;;3.70;2.72;;;4.70;99.90;;;;;;5005962;28;20065;-50
2022/01/17 11:02:50;;;;;;;5.30;3.35;;;4.80;99.90;;;;;;5013866;28;20064;-50
2022/01/17 11:05:17;;;;;;;3.45;2.83;;;4.80;99.90;;;;;;5002480;28;20040;-51
2022/01/17 11:07:45;;;;;;;4.55;3.40;;;4.80;99.90;;;;;;5006907;28;20639;-50
2022/01/17 11:10:20;;;;;;;6.85;3.38;;;4.80;99.90;;;;;;5005302;28;20038;-50
2022/01/17 11:12:47;;;;;;;3.28;2.97;;;4.80;99.90;;;;;;5004177;28;20030;-50
2022/01/17 11:15:15;;;;;;;6.28;3.00;;;4.90;99.90;;;;;;5007078;28;20029;-50
2022/01/17 11:17:48;;;;;;;5.10;2.97;;;4.90;99.90;;;;;;5008632;28;20039;-50
2022/01/17 11:20:15;;;;;;;3.92;2.50;;;4.90;99.90;;;;;;5003242;28;20030;-50
2022/01/17 11:22:46;;;;;;;7.85;3.53;;;4.90;99.90;;;;;;5006006;28;20079;-50
2022/01/17 11:25:23;;;;;;;5.25;3.15;;;4.90;99.90;;;;;;5003646;28;20033;-50
2022/01/17 11:27:50;;;;;;;3.00;2.50;;;4.90;99.90;;;;;;5004318;28;20084;-50
2022/01/17 11:30:16;;;;;;;3.00;2.47;;;5.00;99.90;;;;;;5004227;28;20035;-50
2022/01/17 11:32:46;;;;;;;2.97;1.73;;;5.00;99.90;;;;;;5007120;28;20034;-50
2022/01/17 11:35:14;;;;;;;2.60;2.10;;;5.00;99.90;;;;;;5003724;28;20368;-50
2022/01/17 11:37:43;;;;;;;1.95;1.70;;;5.00;99.90;;;;;;5003524;28;20168;-50
2022/01/17 11:40:12;;;;;;;1.95;1.85;;;5.00;99.90;;;;;;5003296;28;20046;-51
2022/01/17 11:42:46;;;;;;;5.28;2.78;;;5.10;99.90;;;;;;5005788;28;20104;-51
2022/01/17 11:45:21;;;;;;;3.78;2.17;;;5.20;99.90;;;;;;5001997;28;20033;-51
2022/01/17 11:47:49;;;;;;;4.38;3.00;;;5.30;99.90;;;;;;5004598;28;20194;-51
2022/01/17 11:50:31;;;;;;;3.15;2.30;;;5.20;99.90;;;;;;5004333;28;20033;-51
2022/01/17 11:53:09;;;;;;;2.15;1.88;;;5.20;99.90;;;;;;5003463;28;20180;-51
2022/01/17 11:55:44;;;;;;;;;;;5.20;99.90;;;;;;5004214;28;20045;-51
2022/01/17 11:58:26;;;;;;;4.30;2.22;;;5.10;99.90;;;;;;5014388;28;19919;-51
2022/01/17 12:01:04;;;;;;;3.03;2.25;;;5.00;99.90;;;;;;5003355;28;20045;-51
2022/01/17 12:03:46;;;;;;;3.65;2.42;;;5.10;99.90;;;;;;5002595;28;20029;-51
2022/01/17 12:06:25;;;;;;;1.77;1.67;;;5.00;99.90;;;;;;5005360;28;20025;-53
2022/01/17 12:09:19;;;;;;;1.83;1.73;;;5.00;99.90;;;;;;4999973;28;20037;-51
2022/01/17 12:11:46;;;;;;;3.50;1.92;;;5.00;99.90;;;;;;5000840;28;20100;-51
2022/01/17 12:14:33;;;;;;;3.63;2.10;;;5.00;99.90;;;;;;5000843;28;20099;-51
2022/01/17 12:17:24;;;;;;;5.20;1.80;;;5.00;99.90;;;;;;5009658;28;20038;-51
2022/01/17 12:20:06;;;;;;;3.33;2.58;;;5.00;99.90;;;;;;5012490;28;20025;-51
2022/01/17 12:22:47;;;;;;;5.18;2.88;;;5.00;99.90;;;;;;5002329;28;20045;-51
2022/01/17 12:25:31;;;;;;;2.53;2.08;;;5.00;99.90;;;;;;5002317;28;20506;-51
2022/01/17 12:28:03;;;;;;;3.15;2.38;;;4.90;99.90;;;;;;5004198;28;20056;-52
2022/01/17 12:31:01;;;;;;;3.30;2.22;;;5.00;99.90;;;;;;5000980;28;20148;-50
2022/01/17 12:33:39;;;;;;;5.38;2.80;;;5.00;99.90;;;;;;4960844;28;20513;-51
2022/01/17 12:36:24;;;;;;;3.33;2.38;;;5.00;99.90;;;;;;5002934;28;20117;-51
2022/01/17 12:38:51;;;;;;;4.15;2.67;;;5.10;99.90;;;;;;5005247;28;20453;-51
2022/01/17 12:41:37;;;;;;;3.67;2.30;;;5.00;99.90;;;;;;5003501;28;20050;-51
2022/01/17 12:44:25;;;;;;;2.55;1.98;;;5.10;99.90;;;;;;5004090;28;20088;-51
2022/01/17 12:46:54;;;;;;;2.30;2.10;;;5.10;99.90;;;;;;5000272;28;20393;-51
2022/01/17 12:49:21;;;;;;;3.63;2.13;;;5.10;99.90;;;;;;5001774;28;20032;-51
2022/01/17 12:51:49;;;;;;;2.97;2.58;;;5.10;99.90;;;;;;5006794;28;20037;-51
2022/01/17 12:54:18;;;;;;;3.17;2.10;;;5.10;99.90;;;;;;5003417;28;20050;-51
2022/01/17 12:56:46;;;;;;;4.18;2.85;;;5.20;99.90;;;;;;5003866;28;20045;-51
2022/01/17 12:59:13;;;;;;;2.72;2.05;;;5.20;99.90;;;;;;5010640;28;20026;-51
2022/01/17 13:01:51;;;;;;;4.78;2.08;;;5.30;99.90;;;;;;5012770;28;20482;-51
2022/01/17 13:04:17;;;;;;;4.63;2.38;;;5.30;99.90;;;;;;5001809;28;20038;-51
2022/01/17 13:06:45;;;;;;;2.63;1.98;;;5.30;99.90;;;;;;4999989;28;20548;-51
2022/01/17 13:09:20;;;;;;;3.80;3.15;;;5.40;99.90;;;;;;5003579;28;20469;-51
2022/01/17 13:11:46;;;;;;;4.32;2.05;;;5.30;99.90;;;;;;5015187;28;20041;-51
2022/01/17 13:14:18;;;;;;;2.58;1.90;;;5.30;99.90;;;;;;5004773;28;20999;-51
2022/01/17 13:16:45;;;;;;;4.60;1.90;;;5.30;99.90;;;;;;5011823;28;20124;-51
2022/01/17 13:19:13;;;;;;;2.45;1.50;;;5.30;99.90;;;;;;5004787;28;20030;-52
2022/01/17 13:21:40;;;;;;;2.33;1.70;;;5.20;99.90;;;;;;5005777;28;20054;-51
2022/01/17 13:24:24;;;;;;;1.80;1.70;;;5.20;99.90;;;;;;5000501;28;20338;-51
2022/01/17 13:26:56;;;;;;;2.42;1.60;;;5.20;99.90;;;;;;5002026;28;20585;-51
2022/01/17 13:29:22;;;;;;;2.13;1.60;;;5.20;99.90;;;;;;5001692;28;20396;-53
2022/01/17 13:31:48;;;;;;;2.33;1.52;;;5.20;99.90;;;;;;5013503;28;21088;-51